sensor_id;sensor_type;location;lat;lon;timestamp;P1;durP1;ratioP1;P2;durP2;ratioP2
20159;SDS011;50187;50.492;12.134;2023-10-31T00:00:25;1.73;;;1.63;;
20159;SDS011;50187;50.492;12.134;2023-10-31T00:03:10;1.47;;;1.40;;
20159;SDS011;50187;50.492;12.134;2023-10-31T00:05:56;1.70;;;1.60;;
20159;SDS011;50187;50.492;12.134;2023-10-31T00:08:41;1.60;;;1.50;;
20159;SDS011;50187;50.492;12.134;2023-10-31T00:11:26;1.77;;;1.67;;
20159;SDS011;50187;50.492;12.134;2023-10-31T00:14:11;2.10;;;1.53;;
20159;SDS011;50187;50.492;12.134;2023-10-31T00:17:15;1.60;;;1.50;;
20159;SDS011;50187;50.492;12.134;2023-10-31T00:20:00;1.67;;;1.57;;
20159;SDS011;50187;50.492;12.134;2023-10-31T00:22:46;1.40;;;1.40;;
20159;SDS011;50187;50.492;12.134;2023-10-31T00:25:32;1.67;;;1.57;;
20159;SDS011;50187;50.492;12.134;2023-10-31T00:28:19;1.53;;;1.43;;
20159;SDS011;50187;50.492;12.134;2023-10-31T00:31:04;1.60;;;1.50;;
20159;SDS011;50187;50.492;12.134;2023-10-31T00:33:51;1.50;;;1.40;;
20159;SDS011;50187;50.492;12.134;2023-10-31T00:36:36;1.40;;;1.40;;
20159;SDS011;50187;50.492;12.134;2023-10-31T00:39:22;1.60;;;1.50;;
20159;SDS011;50187;50.492;12.134;2023-10-31T00:42:08;1.57;;;1.33;;
20159;SDS011;50187;50.492;12.134;2023-10-31T00:44:53;1.90;;;1.80;;
20159;SDS011;50187;50.492;12.134;2023-10-31T00:47:39;1.80;;;1.70;;
20159;SDS011;50187;50.492;12.134;2023-10-31T00:50:25;1.80;;;1.70;;
20159;SDS011;50187;50.492;12.134;2023-10-31T00:53:10;1.80;;;1.70;;
20159;SDS011;50187;50.492;12.134;2023-10-31T00:55:55;1.60;;;1.50;;
20159;SDS011;50187;50.492;12.134;2023-10-31T00:58:41;1.60;;;1.50;;
20159;SDS011;50187;50.492;12.134;2023-10-31T01:01:26;2.00;;;1.90;;
20159;SDS011;50187;50.492;12.134;2023-10-31T01:04:11;1.57;;;1.47;;
20159;SDS011;50187;50.492;12.134;2023-10-31T01:06:57;1.77;;;1.63;;
20159;SDS011;50187;50.492;12.134;2023-10-31T01:09:42;1.63;;;1.53;;
20159;SDS011;50187;50.492;12.134;2023-10-31T01:12:28;1.50;;;1.40;;
20159;SDS011;50187;50.492;12.134;2023-10-31T01:15:14;1.60;;;1.50;;
20159;SDS011;50187;50.492;12.134;2023-10-31T01:17:59;1.60;;;1.60;;
20159;SDS011;50187;50.492;12.134;2023-10-31T01:20:45;1.93;;;1.83;;
20159;SDS011;50187;50.492;12.134;2023-10-31T01:23:30;2.00;;;1.90;;
20159;SDS011;50187;50.492;12.134;2023-10-31T01:26:15;2.67;;;1.80;;
20159;SDS011;50187;50.492;12.134;2023-10-31T01:29:00;1.90;;;1.80;;
20159;SDS011;50187;50.492;12.134;2023-10-31T01:31:45;1.33;;;1.23;;
20159;SDS011;50187;50.492;12.134;2023-10-31T01:34:45;1.77;;;1.67;;
20159;SDS011;50187;50.492;12.134;2023-10-31T01:37:30;1.90;;;1.80;;
20159;SDS011;50187;50.492;12.134;2023-10-31T01:40:15;1.60;;;1.50;;
20159;SDS011;50187;50.492;12.134;2023-10-31T01:43:01;2.40;;;1.80;;
20159;SDS011;50187;50.492;12.134;2023-10-31T01:45:46;1.73;;;1.63;;
20159;SDS011;50187;50.492;12.134;2023-10-31T01:48:32;1.60;;;1.50;;
20159;SDS011;50187;50.492;12.134;2023-10-31T01:51:19;1.43;;;1.40;;
20159;SDS011;50187;50.492;12.134;2023-10-31T01:54:04;1.63;;;1.53;;
20159;SDS011;50187;50.492;12.134;2023-10-31T01:56:50;1.67;;;1.57;;
20159;SDS011;50187;50.492;12.134;2023-10-31T01:59:39;1.50;;;1.40;;
20159;SDS011;50187;50.492;12.134;2023-10-31T02:02:24;1.70;;;1.60;;
20159;SDS011;50187;50.492;12.134;2023-10-31T02:05:12;1.93;;;1.83;;
20159;SDS011;50187;50.492;12.134;2023-10-31T02:07:58;1.70;;;1.60;;
20159;SDS011;50187;50.492;12.134;2023-10-31T02:10:44;1.50;;;1.50;;
20159;SDS011;50187;50.492;12.134;2023-10-31T02:13:29;1.80;;;1.70;;
20159;SDS011;50187;50.492;12.134;2023-10-31T02:16:14;1.43;;;1.43;;
20159;SDS011;50187;50.492;12.134;2023-10-31T02:19:00;1.30;;;1.30;;
20159;SDS011;50187;50.492;12.134;2023-10-31T02:21:46;1.70;;;1.60;;
20159;SDS011;50187;50.492;12.134;2023-10-31T02:24:31;1.40;;;1.30;;
20159;SDS011;50187;50.492;12.134;2023-10-31T02:27:16;1.40;;;1.30;;
20159;SDS011;50187;50.492;12.134;2023-10-31T02:30:02;1.63;;;1.53;;
20159;SDS011;50187;50.492;12.134;2023-10-31T02:32:47;1.40;;;1.30;;
20159;SDS011;50187;50.492;12.134;2023-10-31T02:35:32;1.50;;;1.40;;
20159;SDS011;50187;50.492;12.134;2023-10-31T02:38:18;1.47;;;1.40;;
20159;SDS011;50187;50.492;12.134;2023-10-31T02:41:03;1.70;;;1.60;;
20159;SDS011;50187;50.492;12.134;2023-10-31T02:43:48;1.60;;;1.50;;
20159;SDS011;50187;50.492;12.134;2023-10-31T02:46:37;1.60;;;1.50;;
20159;SDS011;50187;50.492;12.134;2023-10-31T02:49:23;1.40;;;1.40;;
20159;SDS011;50187;50.492;12.134;2023-10-31T02:52:08;1.43;;;1.33;;
20159;SDS011;50187;50.492;12.134;2023-10-31T02:54:53;2.00;;;1.40;;
20159;SDS011;50187;50.492;12.134;2023-10-31T02:57:39;1.60;;;1.50;;
20159;SDS011;50187;50.492;12.134;2023-10-31T03:00:25;1.20;;;1.20;;
20159;SDS011;50187;50.492;12.134;2023-10-31T03:03:10;1.50;;;1.40;;
20159;SDS011;50187;50.492;12.134;2023-10-31T03:05:56;1.40;;;1.40;;
20159;SDS011;50187;50.492;12.134;2023-10-31T03:08:41;1.53;;;1.43;;
20159;SDS011;50187;50.492;12.134;2023-10-31T03:11:26;1.43;;;1.37;;
20159;SDS011;50187;50.492;12.134;2023-10-31T03:14:14;1.30;;;1.30;;
20159;SDS011;50187;50.492;12.134;2023-10-31T03:16:58;1.53;;;1.43;;
20159;SDS011;50187;50.492;12.134;2023-10-31T03:19:44;1.67;;;1.57;;
20159;SDS011;50187;50.492;12.134;2023-10-31T03:22:29;1.33;;;1.33;;
20159;SDS011;50187;50.492;12.134;2023-10-31T03:25:14;1.20;;;1.20;;
20159;SDS011;50187;50.492;12.134;2023-10-31T03:27:59;1.67;;;1.57;;
20159;SDS011;50187;50.492;12.134;2023-10-31T03:30:45;1.20;;;1.20;;
20159;SDS011;50187;50.492;12.134;2023-10-31T03:33:31;1.40;;;1.37;;
20159;SDS011;50187;50.492;12.134;2023-10-31T03:36:17;1.30;;;1.30;;
20159;SDS011;50187;50.492;12.134;2023-10-31T03:39:03;1.20;;;1.20;;
20159;SDS011;50187;50.492;12.134;2023-10-31T03:41:48;1.47;;;1.43;;
20159;SDS011;50187;50.492;12.134;2023-10-31T03:44:33;1.43;;;1.33;;
20159;SDS011;50187;50.492;12.134;2023-10-31T03:47:18;1.20;;;1.20;;
20159;SDS011;50187;50.492;12.134;2023-10-31T03:50:03;1.40;;;1.30;;
20159;SDS011;50187;50.492;12.134;2023-10-31T03:52:49;1.27;;;1.23;;
20159;SDS011;50187;50.492;12.134;2023-10-31T03:55:35;1.53;;;1.43;;
20159;SDS011;50187;50.492;12.134;2023-10-31T03:58:21;1.20;;;1.20;;
20159;SDS011;50187;50.492;12.134;2023-10-31T04:01:06;1.40;;;1.33;;
20159;SDS011;50187;50.492;12.134;2023-10-31T04:03:52;1.30;;;1.30;;
20159;SDS011;50187;50.492;12.134;2023-10-31T04:06:37;1.23;;;1.23;;
20159;SDS011;50187;50.492;12.134;2023-10-31T04:09:25;1.43;;;1.43;;
20159;SDS011;50187;50.492;12.134;2023-10-31T04:12:11;1.00;;;1.00;;
20159;SDS011;50187;50.492;12.134;2023-10-31T04:14:56;1.63;;;1.37;;
20159;SDS011;50187;50.492;12.134;2023-10-31T04:17:41;1.50;;;1.40;;
20159;SDS011;50187;50.492;12.134;2023-10-31T04:20:27;1.40;;;1.30;;
20159;SDS011;50187;50.492;12.134;2023-10-31T04:23:12;1.57;;;1.50;;
20159;SDS011;50187;50.492;12.134;2023-10-31T04:25:58;1.20;;;1.20;;
20159;SDS011;50187;50.492;12.134;2023-10-31T04:28:43;1.30;;;1.30;;
20159;SDS011;50187;50.492;12.134;2023-10-31T04:31:29;1.50;;;1.40;;
20159;SDS011;50187;50.492;12.134;2023-10-31T04:34:25;1.50;;;1.40;;
20159;SDS011;50187;50.492;12.134;2023-10-31T04:37:10;1.40;;;1.30;;
20159;SDS011;50187;50.492;12.134;2023-10-31T04:39:56;1.30;;;1.20;;
20159;SDS011;50187;50.492;12.134;2023-10-31T04:42:41;1.23;;;1.23;;
20159;SDS011;50187;50.492;12.134;2023-10-31T04:45:27;1.10;;;1.10;;
20159;SDS011;50187;50.492;12.134;2023-10-31T04:48:12;1.33;;;1.30;;
20159;SDS011;50187;50.492;12.134;2023-10-31T04:50:57;1.00;;;1.00;;
20159;SDS011;50187;50.492;12.134;2023-10-31T04:53:42;1.23;;;1.23;;
20159;SDS011;50187;50.492;12.134;2023-10-31T04:56:28;1.10;;;1.10;;
20159;SDS011;50187;50.492;12.134;2023-10-31T04:59:13;1.10;;;1.10;;
20159;SDS011;50187;50.492;12.134;2023-10-31T05:01:58;1.30;;;1.20;;
20159;SDS011;50187;50.492;12.134;2023-10-31T05:04:43;1.40;;;1.40;;
20159;SDS011;50187;50.492;12.134;2023-10-31T05:07:29;1.20;;;1.10;;
20159;SDS011;50187;50.492;12.134;2023-10-31T05:10:14;1.10;;;1.10;;
20159;SDS011;50187;50.492;12.134;2023-10-31T05:13:00;1.20;;;1.20;;
20159;SDS011;50187;50.492;12.134;2023-10-31T05:15:47;1.30;;;1.20;;
20159;SDS011;50187;50.492;12.134;2023-10-31T05:18:32;1.03;;;1.03;;
20159;SDS011;50187;50.492;12.134;2023-10-31T05:21:20;1.80;;;1.20;;
20159;SDS011;50187;50.492;12.134;2023-10-31T05:24:05;1.13;;;1.13;;
20159;SDS011;50187;50.492;12.134;2023-10-31T05:26:51;0.80;;;0.80;;
20159;SDS011;50187;50.492;12.134;2023-10-31T05:29:38;1.03;;;1.03;;
20159;SDS011;50187;50.492;12.134;2023-10-31T05:32:24;0.93;;;0.93;;
20159;SDS011;50187;50.492;12.134;2023-10-31T05:35:09;1.00;;;1.00;;
20159;SDS011;50187;50.492;12.134;2023-10-31T05:37:54;1.13;;;1.03;;
20159;SDS011;50187;50.492;12.134;2023-10-31T05:40:39;1.27;;;1.17;;
20159;SDS011;50187;50.492;12.134;2023-10-31T05:43:24;1.17;;;1.17;;
20159;SDS011;50187;50.492;12.134;2023-10-31T05:46:10;1.10;;;1.10;;
20159;SDS011;50187;50.492;12.134;2023-10-31T05:48:55;1.10;;;1.10;;
20159;SDS011;50187;50.492;12.134;2023-10-31T05:51:41;1.00;;;1.00;;
20159;SDS011;50187;50.492;12.134;2023-10-31T05:54:26;1.33;;;1.00;;
20159;SDS011;50187;50.492;12.134;2023-10-31T05:57:11;0.83;;;0.83;;
20159;SDS011;50187;50.492;12.134;2023-10-31T05:59:56;0.80;;;0.80;;
20159;SDS011;50187;50.492;12.134;2023-10-31T06:02:41;1.07;;;1.07;;
20159;SDS011;50187;50.492;12.134;2023-10-31T06:05:27;1.10;;;1.10;;
20159;SDS011;50187;50.492;12.134;2023-10-31T06:08:12;1.00;;;1.00;;
20159;SDS011;50187;50.492;12.134;2023-10-31T06:10:58;1.20;;;1.20;;
20159;SDS011;50187;50.492;12.134;2023-10-31T06:13:45;1.17;;;1.17;;
20159;SDS011;50187;50.492;12.134;2023-10-31T06:16:33;1.00;;;1.00;;
20159;SDS011;50187;50.492;12.134;2023-10-31T06:19:18;1.13;;;1.10;;
20159;SDS011;50187;50.492;12.134;2023-10-31T06:22:03;1.10;;;1.10;;
20159;SDS011;50187;50.492;12.134;2023-10-31T06:24:48;0.80;;;0.80;;
20159;SDS011;50187;50.492;12.134;2023-10-31T06:27:33;1.00;;;1.00;;
20159;SDS011;50187;50.492;12.134;2023-10-31T06:30:19;1.00;;;1.00;;
20159;SDS011;50187;50.492;12.134;2023-10-31T06:33:12;0.90;;;0.90;;
20159;SDS011;50187;50.492;12.134;2023-10-31T06:35:58;0.93;;;0.93;;
20159;SDS011;50187;50.492;12.134;2023-10-31T06:38:43;0.70;;;0.70;;
20159;SDS011;50187;50.492;12.134;2023-10-31T06:41:29;0.90;;;0.90;;
20159;SDS011;50187;50.492;12.134;2023-10-31T06:44:14;1.10;;;1.10;;
20159;SDS011;50187;50.492;12.134;2023-10-31T06:46:59;1.03;;;0.80;;
20159;SDS011;50187;50.492;12.134;2023-10-31T06:49:44;0.97;;;0.97;;
20159;SDS011;50187;50.492;12.134;2023-10-31T06:52:30;0.90;;;0.90;;
20159;SDS011;50187;50.492;12.134;2023-10-31T06:55:15;0.90;;;0.90;;
20159;SDS011;50187;50.492;12.134;2023-10-31T06:58:00;1.03;;;0.73;;
20159;SDS011;50187;50.492;12.134;2023-10-31T07:00:45;0.90;;;0.90;;
20159;SDS011;50187;50.492;12.134;2023-10-31T07:03:30;0.80;;;0.80;;
20159;SDS011;50187;50.492;12.134;2023-10-31T07:06:17;0.80;;;0.80;;
20159;SDS011;50187;50.492;12.134;2023-10-31T07:09:02;0.80;;;0.80;;
20159;SDS011;50187;50.492;12.134;2023-10-31T07:11:50;0.77;;;0.77;;
20159;SDS011;50187;50.492;12.134;2023-10-31T07:14:34;0.83;;;0.83;;
20159;SDS011;50187;50.492;12.134;2023-10-31T07:17:20;0.77;;;0.77;;
20159;SDS011;50187;50.492;12.134;2023-10-31T07:20:06;0.57;;;0.57;;
20159;SDS011;50187;50.492;12.134;2023-10-31T07:22:51;0.80;;;0.80;;
20159;SDS011;50187;50.492;12.134;2023-10-31T07:25:37;0.87;;;0.87;;
20159;SDS011;50187;50.492;12.134;2023-10-31T07:28:22;0.90;;;0.90;;
20159;SDS011;50187;50.492;12.134;2023-10-31T07:31:07;0.77;;;0.77;;
20159;SDS011;50187;50.492;12.134;2023-10-31T07:33:52;1.17;;;0.97;;
20159;SDS011;50187;50.492;12.134;2023-10-31T07:36:37;0.90;;;0.90;;
20159;SDS011;50187;50.492;12.134;2023-10-31T07:39:24;1.10;;;1.00;;
20159;SDS011;50187;50.492;12.134;2023-10-31T07:42:09;0.90;;;0.90;;
20159;SDS011;50187;50.492;12.134;2023-10-31T07:44:55;0.80;;;0.80;;
20159;SDS011;50187;50.492;12.134;2023-10-31T07:47:41;0.70;;;0.70;;
20159;SDS011;50187;50.492;12.134;2023-10-31T07:50:26;0.90;;;0.90;;
20159;SDS011;50187;50.492;12.134;2023-10-31T07:53:11;0.80;;;0.80;;
20159;SDS011;50187;50.492;12.134;2023-10-31T07:55:56;0.70;;;0.70;;
20159;SDS011;50187;50.492;12.134;2023-10-31T07:58:41;0.70;;;0.70;;
20159;SDS011;50187;50.492;12.134;2023-10-31T08:01:27;0.70;;;0.70;;
20159;SDS011;50187;50.492;12.134;2023-10-31T08:04:12;0.80;;;0.80;;
20159;SDS011;50187;50.492;12.134;2023-10-31T08:07:00;0.87;;;0.87;;
20159;SDS011;50187;50.492;12.134;2023-10-31T08:09:46;0.70;;;0.70;;
20159;SDS011;50187;50.492;12.134;2023-10-31T08:12:31;0.70;;;0.70;;
20159;SDS011;50187;50.492;12.134;2023-10-31T08:15:16;0.70;;;0.70;;
20159;SDS011;50187;50.492;12.134;2023-10-31T08:18:02;0.70;;;0.70;;
20159;SDS011;50187;50.492;12.134;2023-10-31T08:20:47;0.67;;;0.67;;
20159;SDS011;50187;50.492;12.134;2023-10-31T08:23:35;0.80;;;0.80;;
20159;SDS011;50187;50.492;12.134;2023-10-31T08:26:21;0.60;;;0.60;;
20159;SDS011;50187;50.492;12.134;2023-10-31T08:29:06;0.60;;;0.60;;
20159;SDS011;50187;50.492;12.134;2023-10-31T08:31:51;0.70;;;0.70;;
20159;SDS011;50187;50.492;12.134;2023-10-31T08:34:36;0.63;;;0.63;;
20159;SDS011;50187;50.492;12.134;2023-10-31T08:37:22;0.70;;;0.70;;
20159;SDS011;50187;50.492;12.134;2023-10-31T08:40:07;0.70;;;0.70;;
20159;SDS011;50187;50.492;12.134;2023-10-31T08:42:53;0.80;;;0.80;;
20159;SDS011;50187;50.492;12.134;2023-10-31T08:45:39;1.00;;;1.00;;
20159;SDS011;50187;50.492;12.134;2023-10-31T08:48:25;0.70;;;0.70;;
20159;SDS011;50187;50.492;12.134;2023-10-31T08:51:11;0.67;;;0.67;;
20159;SDS011;50187;50.492;12.134;2023-10-31T08:53:56;0.60;;;0.60;;
20159;SDS011;50187;50.492;12.134;2023-10-31T08:56:41;0.73;;;0.70;;
20159;SDS011;50187;50.492;12.134;2023-10-31T08:59:26;0.80;;;0.80;;
20159;SDS011;50187;50.492;12.134;2023-10-31T09:02:11;0.77;;;0.60;;
20159;SDS011;50187;50.492;12.134;2023-10-31T09:04:57;0.43;;;0.43;;
20159;SDS011;50187;50.492;12.134;2023-10-31T09:07:42;0.60;;;0.60;;
20159;SDS011;50187;50.492;12.134;2023-10-31T09:10:28;0.60;;;0.60;;
20159;SDS011;50187;50.492;12.134;2023-10-31T09:13:13;0.70;;;0.70;;
20159;SDS011;50187;50.492;12.134;2023-10-31T09:15:58;0.60;;;0.60;;
20159;SDS011;50187;50.492;12.134;2023-10-31T09:18:44;0.50;;;0.50;;
20159;SDS011;50187;50.492;12.134;2023-10-31T09:21:32;0.40;;;0.40;;
20159;SDS011;50187;50.492;12.134;2023-10-31T09:24:16;0.50;;;0.50;;
20159;SDS011;50187;50.492;12.134;2023-10-31T09:27:02;0.47;;;0.47;;
20159;SDS011;50187;50.492;12.134;2023-10-31T09:29:47;0.70;;;0.70;;
20159;SDS011;50187;50.492;12.134;2023-10-31T09:32:33;0.53;;;0.53;;
20159;SDS011;50187;50.492;12.134;2023-10-31T09:35:18;0.50;;;0.50;;
20159;SDS011;50187;50.492;12.134;2023-10-31T09:38:04;0.47;;;0.47;;
20159;SDS011;50187;50.492;12.134;2023-10-31T09:40:49;0.60;;;0.60;;
20159;SDS011;50187;50.492;12.134;2023-10-31T09:43:36;0.60;;;0.60;;
20159;SDS011;50187;50.492;12.134;2023-10-31T09:46:22;0.50;;;0.50;;
20159;SDS011;50187;50.492;12.134;2023-10-31T09:49:08;0.63;;;0.63;;
20159;SDS011;50187;50.492;12.134;2023-10-31T09:51:53;0.87;;;0.70;;
20159;SDS011;50187;50.492;12.134;2023-10-31T09:54:38;0.40;;;0.40;;
20159;SDS011;50187;50.492;12.134;2023-10-31T09:57:27;0.60;;;0.60;;
20159;SDS011;50187;50.492;12.134;2023-10-31T10:00:13;0.50;;;0.50;;
20159;SDS011;50187;50.492;12.134;2023-10-31T10:02:59;0.50;;;0.50;;
20159;SDS011;50187;50.492;12.134;2023-10-31T10:05:45;0.60;;;0.60;;
20159;SDS011;50187;50.492;12.134;2023-10-31T10:08:31;0.40;;;0.40;;
20159;SDS011;50187;50.492;12.134;2023-10-31T10:11:16;0.60;;;0.60;;
20159;SDS011;50187;50.492;12.134;2023-10-31T10:14:01;0.60;;;0.60;;
20159;SDS011;50187;50.492;12.134;2023-10-31T10:16:47;0.60;;;0.60;;
20159;SDS011;50187;50.492;12.134;2023-10-31T10:19:33;0.63;;;0.63;;
20159;SDS011;50187;50.492;12.134;2023-10-31T10:22:19;0.70;;;0.70;;
20159;SDS011;50187;50.492;12.134;2023-10-31T10:25:15;0.50;;;0.50;;
20159;SDS011;50187;50.492;12.134;2023-10-31T10:28:02;0.50;;;0.50;;
20159;SDS011;50187;50.492;12.134;2023-10-31T10:30:48;0.57;;;0.57;;
20159;SDS011;50187;50.492;12.134;2023-10-31T10:33:34;0.70;;;0.60;;
20159;SDS011;50187;50.492;12.134;2023-10-31T10:36:19;0.80;;;0.80;;
20159;SDS011;50187;50.492;12.134;2023-10-31T10:39:04;0.57;;;0.57;;
20159;SDS011;50187;50.492;12.134;2023-10-31T10:41:52;0.70;;;0.70;;
20159;SDS011;50187;50.492;12.134;2023-10-31T10:44:44;0.80;;;0.80;;
20159;SDS011;50187;50.492;12.134;2023-10-31T10:47:33;0.70;;;0.70;;
20159;SDS011;50187;50.492;12.134;2023-10-31T10:50:20;1.50;;;0.80;;
20159;SDS011;50187;50.492;12.134;2023-10-31T10:53:21;0.50;;;0.50;;
20159;SDS011;50187;50.492;12.134;2023-10-31T10:56:16;0.90;;;0.90;;
20159;SDS011;50187;50.492;12.134;2023-10-31T11:01:59;0.70;;;0.70;;
20159;SDS011;50187;50.492;12.134;2023-10-31T11:04:46;0.93;;;0.90;;
20159;SDS011;50187;50.492;12.134;2023-10-31T11:07:33;0.83;;;0.83;;
20159;SDS011;50187;50.492;12.134;2023-10-31T11:10:19;0.77;;;0.70;;
20159;SDS011;50187;50.492;12.134;2023-10-31T11:13:04;0.93;;;0.80;;
20159;SDS011;50187;50.492;12.134;2023-10-31T11:15:51;1.10;;;0.93;;
20159;SDS011;50187;50.492;12.134;2023-10-31T11:18:40;0.83;;;0.83;;
20159;SDS011;50187;50.492;12.134;2023-10-31T11:21:30;0.80;;;0.80;;
20159;SDS011;50187;50.492;12.134;2023-10-31T11:24:15;1.20;;;1.10;;
20159;SDS011;50187;50.492;12.134;2023-10-31T11:27:02;1.00;;;0.73;;
20159;SDS011;50187;50.492;12.134;2023-10-31T11:29:49;0.83;;;0.83;;
20159;SDS011;50187;50.492;12.134;2023-10-31T11:32:34;1.33;;;0.87;;
20159;SDS011;50187;50.492;12.134;2023-10-31T11:35:21;1.10;;;1.00;;
20159;SDS011;50187;50.492;12.134;2023-10-31T11:38:09;0.97;;;0.97;;
20159;SDS011;50187;50.492;12.134;2023-10-31T11:41:00;0.90;;;0.90;;
20159;SDS011;50187;50.492;12.134;2023-10-31T11:46:33;0.70;;;0.70;;
20159;SDS011;50187;50.492;12.134;2023-10-31T11:52:30;0.97;;;0.80;;
20159;SDS011;50187;50.492;12.134;2023-10-31T11:55:16;0.90;;;0.90;;
20159;SDS011;50187;50.492;12.134;2023-10-31T11:58:17;0.80;;;0.80;;
20159;SDS011;50187;50.492;12.134;2023-10-31T12:01:04;0.97;;;0.90;;
20159;SDS011;50187;50.492;12.134;2023-10-31T12:03:50;0.77;;;0.77;;
20159;SDS011;50187;50.492;12.134;2023-10-31T12:06:37;0.90;;;0.73;;
20159;SDS011;50187;50.492;12.134;2023-10-31T12:09:22;0.70;;;0.70;;
20159;SDS011;50187;50.492;12.134;2023-10-31T12:12:07;0.93;;;0.90;;
20159;SDS011;50187;50.492;12.134;2023-10-31T12:15:03;0.80;;;0.77;;
20159;SDS011;50187;50.492;12.134;2023-10-31T12:17:58;0.67;;;0.67;;
20159;SDS011;50187;50.492;12.134;2023-10-31T12:20:48;0.60;;;0.60;;
20159;SDS011;50187;50.492;12.134;2023-10-31T12:23:37;0.70;;;0.70;;
20159;SDS011;50187;50.492;12.134;2023-10-31T12:26:22;1.00;;;0.90;;
20159;SDS011;50187;50.492;12.134;2023-10-31T12:29:11;0.97;;;0.90;;
20159;SDS011;50187;50.492;12.134;2023-10-31T12:31:58;0.87;;;0.87;;
20159;SDS011;50187;50.492;12.134;2023-10-31T12:34:44;1.03;;;0.70;;
20159;SDS011;50187;50.492;12.134;2023-10-31T12:37:30;0.87;;;0.87;;
20159;SDS011;50187;50.492;12.134;2023-10-31T12:40:20;0.70;;;0.70;;
20159;SDS011;50187;50.492;12.134;2023-10-31T12:43:06;0.80;;;0.80;;
20159;SDS011;50187;50.492;12.134;2023-10-31T12:45:52;0.40;;;0.40;;
20159;SDS011;50187;50.492;12.134;2023-10-31T12:48:37;0.67;;;0.67;;
20159;SDS011;50187;50.492;12.134;2023-10-31T12:51:23;0.83;;;0.70;;
20159;SDS011;50187;50.492;12.134;2023-10-31T12:54:08;0.73;;;0.73;;
20159;SDS011;50187;50.492;12.134;2023-10-31T12:56:53;0.70;;;0.70;;
20159;SDS011;50187;50.492;12.134;2023-10-31T12:59:39;0.80;;;0.80;;
20159;SDS011;50187;50.492;12.134;2023-10-31T13:02:24;0.50;;;0.50;;
20159;SDS011;50187;50.492;12.134;2023-10-31T13:05:10;0.70;;;0.70;;
20159;SDS011;50187;50.492;12.134;2023-10-31T13:07:57;0.90;;;0.70;;
20159;SDS011;50187;50.492;12.134;2023-10-31T13:10:45;0.70;;;0.70;;
20159;SDS011;50187;50.492;12.134;2023-10-31T13:13:30;0.70;;;0.70;;
20159;SDS011;50187;50.492;12.134;2023-10-31T13:16:15;0.93;;;0.80;;
20159;SDS011;50187;50.492;12.134;2023-10-31T13:19:00;1.73;;;0.70;;
20159;SDS011;50187;50.492;12.134;2023-10-31T13:21:45;0.67;;;0.67;;
20159;SDS011;50187;50.492;12.134;2023-10-31T13:24:31;0.60;;;0.60;;
20159;SDS011;50187;50.492;12.134;2023-10-31T13:27:16;0.93;;;0.80;;
20159;SDS011;50187;50.492;12.134;2023-10-31T13:30:03;1.00;;;0.83;;
20159;SDS011;50187;50.492;12.134;2023-10-31T13:32:49;0.50;;;0.50;;
20159;SDS011;50187;50.492;12.134;2023-10-31T13:35:35;1.43;;;1.07;;
20159;SDS011;50187;50.492;12.134;2023-10-31T13:38:29;0.60;;;0.60;;
20159;SDS011;50187;50.492;12.134;2023-10-31T13:41:14;0.83;;;0.77;;
20159;SDS011;50187;50.492;12.134;2023-10-31T13:44:00;1.00;;;0.90;;
20159;SDS011;50187;50.492;12.134;2023-10-31T13:46:48;0.40;;;0.40;;
20159;SDS011;50187;50.492;12.134;2023-10-31T13:49:33;0.50;;;0.50;;
20159;SDS011;50187;50.492;12.134;2023-10-31T13:52:18;0.83;;;0.83;;
20159;SDS011;50187;50.492;12.134;2023-10-31T13:55:04;0.63;;;0.63;;
20159;SDS011;50187;50.492;12.134;2023-10-31T13:57:50;0.60;;;0.60;;
20159;SDS011;50187;50.492;12.134;2023-10-31T14:00:35;0.67;;;0.67;;
20159;SDS011;50187;50.492;12.134;2023-10-31T14:03:20;0.60;;;0.60;;
20159;SDS011;50187;50.492;12.134;2023-10-31T14:06:06;1.60;;;0.60;;
20159;SDS011;50187;50.492;12.134;2023-10-31T14:08:52;1.17;;;0.80;;
20159;SDS011;50187;50.492;12.134;2023-10-31T14:11:38;0.60;;;0.60;;
20159;SDS011;50187;50.492;12.134;2023-10-31T14:14:26;0.60;;;0.60;;
20159;SDS011;50187;50.492;12.134;2023-10-31T14:17:12;0.97;;;0.70;;
20159;SDS011;50187;50.492;12.134;2023-10-31T14:20:01;0.90;;;0.80;;
20159;SDS011;50187;50.492;12.134;2023-10-31T14:22:48;0.60;;;0.60;;
20159;SDS011;50187;50.492;12.134;2023-10-31T14:25:34;0.60;;;0.60;;
20159;SDS011;50187;50.492;12.134;2023-10-31T14:28:23;0.43;;;0.43;;
20159;SDS011;50187;50.492;12.134;2023-10-31T14:31:09;0.63;;;0.63;;
20159;SDS011;50187;50.492;12.134;2023-10-31T14:33:55;0.77;;;0.50;;
20159;SDS011;50187;50.492;12.134;2023-10-31T14:36:43;0.73;;;0.73;;
20159;SDS011;50187;50.492;12.134;2023-10-31T14:39:28;0.50;;;0.50;;
20159;SDS011;50187;50.492;12.134;2023-10-31T14:42:14;0.80;;;0.80;;
20159;SDS011;50187;50.492;12.134;2023-10-31T14:45:00;0.60;;;0.60;;
20159;SDS011;50187;50.492;12.134;2023-10-31T14:47:46;0.50;;;0.50;;
20159;SDS011;50187;50.492;12.134;2023-10-31T14:50:32;0.40;;;0.40;;
20159;SDS011;50187;50.492;12.134;2023-10-31T14:53:18;0.60;;;0.60;;
20159;SDS011;50187;50.492;12.134;2023-10-31T14:56:07;0.50;;;0.50;;
20159;SDS011;50187;50.492;12.134;2023-10-31T14:58:52;0.60;;;0.60;;
20159;SDS011;50187;50.492;12.134;2023-10-31T15:01:37;0.70;;;0.70;;
20159;SDS011;50187;50.492;12.134;2023-10-31T15:04:22;0.60;;;0.60;;
20159;SDS011;50187;50.492;12.134;2023-10-31T15:07:08;0.70;;;0.70;;
20159;SDS011;50187;50.492;12.134;2023-10-31T15:09:52;0.63;;;0.63;;
20159;SDS011;50187;50.492;12.134;2023-10-31T15:12:38;0.47;;;0.47;;
20159;SDS011;50187;50.492;12.134;2023-10-31T15:15:23;0.50;;;0.50;;
20159;SDS011;50187;50.492;12.134;2023-10-31T15:18:08;0.50;;;0.50;;
20159;SDS011;50187;50.492;12.134;2023-10-31T15:20:53;0.70;;;0.70;;
20159;SDS011;50187;50.492;12.134;2023-10-31T15:23:42;0.70;;;0.60;;
20159;SDS011;50187;50.492;12.134;2023-10-31T15:26:27;0.90;;;0.63;;
20159;SDS011;50187;50.492;12.134;2023-10-31T15:29:13;1.23;;;0.90;;
20159;SDS011;50187;50.492;12.134;2023-10-31T15:31:59;0.90;;;0.87;;
20159;SDS011;50187;50.492;12.134;2023-10-31T15:34:45;0.77;;;0.77;;
20159;SDS011;50187;50.492;12.134;2023-10-31T15:37:30;1.10;;;1.00;;
20159;SDS011;50187;50.492;12.134;2023-10-31T15:40:16;1.07;;;0.97;;
20159;SDS011;50187;50.492;12.134;2023-10-31T15:43:01;1.63;;;0.83;;
20159;SDS011;50187;50.492;12.134;2023-10-31T15:45:46;3.10;;;1.10;;
20159;SDS011;50187;50.492;12.134;2023-10-31T15:48:31;1.33;;;0.90;;
20159;SDS011;50187;50.492;12.134;2023-10-31T15:51:18;1.37;;;0.97;;
20159;SDS011;50187;50.492;12.134;2023-10-31T15:54:04;1.90;;;1.10;;
20159;SDS011;50187;50.492;12.134;2023-10-31T15:56:52;1.63;;;0.80;;
20159;SDS011;50187;50.492;12.134;2023-10-31T15:59:37;1.90;;;0.80;;
20159;SDS011;50187;50.492;12.134;2023-10-31T16:02:23;1.20;;;0.83;;
20159;SDS011;50187;50.492;12.134;2023-10-31T16:05:09;0.90;;;0.90;;
20159;SDS011;50187;50.492;12.134;2023-10-31T16:07:54;1.77;;;1.00;;
20159;SDS011;50187;50.492;12.134;2023-10-31T16:10:40;1.10;;;1.10;;
20159;SDS011;50187;50.492;12.134;2023-10-31T16:13:25;1.30;;;1.10;;
20159;SDS011;50187;50.492;12.134;2023-10-31T16:16:10;2.60;;;1.57;;
20159;SDS011;50187;50.492;12.134;2023-10-31T16:18:56;2.20;;;0.90;;
20159;SDS011;50187;50.492;12.134;2023-10-31T16:21:41;1.47;;;1.07;;
20159;SDS011;50187;50.492;12.134;2023-10-31T16:24:27;1.23;;;1.07;;
20159;SDS011;50187;50.492;12.134;2023-10-31T16:27:12;2.87;;;1.40;;
20159;SDS011;50187;50.492;12.134;2023-10-31T16:29:57;1.73;;;1.37;;
20159;SDS011;50187;50.492;12.134;2023-10-31T16:32:43;1.67;;;1.57;;